createdAt,value
2019-01-15T00:00:37.892Z,18.53
2019-01-15T00:01:37.921Z,18.51
2019-01-15T00:02:37.761Z,18.53
2019-01-15T00:03:38.118Z,18.51
2019-01-15T00:04:38.496Z,18.5
2019-01-15T00:05:37.764Z,18.5
2019-01-15T00:06:37.548Z,18.51
2019-01-15T00:07:38.158Z,18.51
2019-01-15T00:08:38.424Z,18.5
2019-01-15T00:09:37.995Z,18.49
2019-01-15T00:10:37.870Z,18.47
2019-01-15T00:11:37.807Z,18.49
2019-01-15T00:12:38.646Z,18.47
2019-01-15T00:13:37.601Z,18.46
2019-01-15T00:14:37.769Z,18.47
2019-01-15T00:15:37.648Z,18.47
2019-01-15T00:16:38.148Z,18.46
2019-01-15T00:17:37.954Z,18.46
2019-01-15T00:18:39.558Z,18.44
2019-01-15T00:19:38.053Z,18.46
2019-01-15T00:20:37.517Z,18.46
2019-01-15T00:21:37.674Z,18.44
2019-01-15T00:22:37.906Z,18.43
2019-01-15T00:23:37.867Z,18.47
2019-01-15T00:24:37.662Z,18.41
2019-01-15T00:25:37.664Z,18.4
2019-01-15T00:26:38.353Z,18.43
2019-01-15T00:27:37.822Z,18.4
2019-01-15T00:28:37.675Z,18.43
2019-01-15T00:29:37.790Z,18.41
2019-01-15T00:30:38.049Z,18.39
2019-01-15T00:31:38.102Z,18.39
2019-01-15T00:32:37.620Z,18.4
2019-01-15T00:33:37.651Z,18.37
2019-01-15T00:34:37.955Z,18.39
2019-01-15T00:35:37.911Z,18.39
2019-01-15T00:36:37.952Z,18.37
2019-01-15T00:37:37.939Z,18.37
2019-01-15T00:38:37.919Z,18.37
2019-01-15T00:39:37.650Z,18.35
2019-01-15T00:40:38.110Z,18.35
2019-01-15T00:41:37.885Z,18.33
2019-01-15T00:42:38.649Z,18.35
2019-01-15T00:43:38.563Z,18.36
2019-01-15T00:44:38.055Z,18.35
2019-01-15T00:45:38.155Z,18.33
2019-01-15T00:46:37.581Z,18.35
2019-01-15T00:47:37.598Z,18.35
2019-01-15T00:48:37.713Z,18.33
2019-01-15T00:49:37.865Z,18.3
2019-01-15T00:50:38.140Z,18.32
2019-01-15T00:51:37.707Z,18.33
2019-01-15T00:52:37.785Z,18.32
2019-01-15T00:53:37.734Z,18.29
2019-01-15T00:54:37.719Z,18.32
2019-01-15T00:55:37.684Z,18.28
2019-01-15T00:56:37.766Z,18.3
2019-01-15T00:57:37.870Z,18.3
2019-01-15T00:58:37.723Z,18.3
2019-01-15T00:59:37.701Z,18.28
2019-01-15T01:00:37.795Z,18.26
2019-01-15T01:01:37.691Z,18.25
2019-01-15T01:02:37.784Z,18.23
2019-01-15T01:03:37.785Z,18.26
2019-01-15T01:04:38.161Z,18.28
2019-01-15T01:05:38.020Z,18.26
2019-01-15T01:06:38.035Z,18.26
2019-01-15T01:07:37.982Z,18.23
2019-01-15T01:08:38.105Z,18.25
2019-01-15T01:09:37.651Z,18.26
2019-01-15T01:10:37.605Z,18.25
2019-01-15T01:11:37.652Z,18.22
2019-01-15T01:12:37.645Z,18.23
2019-01-15T01:13:37.800Z,18.22
2019-01-15T01:14:37.969Z,18.22
2019-01-15T01:15:38.357Z,18.22
2019-01-15T01:16:37.994Z,18.19
2019-01-15T01:17:37.738Z,18.22
2019-01-15T01:18:37.881Z,18.23
2019-01-15T01:19:38.268Z,18.21
2019-01-15T01:20:37.728Z,18.21
2019-01-15T01:21:37.930Z,18.21
2019-01-15T01:22:37.854Z,18.21
2019-01-15T01:23:37.652Z,18.19
2019-01-15T01:24:38.215Z,18.22
2019-01-15T01:25:38.032Z,18.18
2019-01-15T01:26:38.063Z,18.16
2019-01-15T01:27:38.022Z,18.18
2019-01-15T01:28:37.764Z,18.13
2019-01-15T01:29:37.973Z,18.18
2019-01-15T01:30:37.598Z,18.16
2019-01-15T01:31:38.181Z,18.15
2019-01-15T01:32:38.273Z,18.15
2019-01-15T01:33:37.954Z,18.18
2019-01-15T01:34:37.998Z,18.15
2019-01-15T01:35:37.972Z,18.15
2019-01-15T01:36:38.114Z,18.12
2019-01-15T01:37:39.414Z,18.15
2019-01-15T01:38:37.830Z,18.15
2019-01-15T01:39:37.800Z,18.12
2019-01-15T01:40:37.810Z,18.13
2019-01-15T01:41:37.938Z,18.15
2019-01-15T01:42:37.783Z,18.13
2019-01-15T01:43:38.125Z,18.13
2019-01-15T01:44:37.734Z,18.12
2019-01-15T01:45:38.109Z,18.12
2019-01-15T01:46:37.991Z,18.12
2019-01-15T01:47:38.060Z,18.11
2019-01-15T01:48:38.173Z,18.12
2019-01-15T01:49:37.945Z,18.12
2019-01-15T01:50:37.803Z,18.12
2019-01-15T01:51:37.974Z,18.12
2019-01-15T01:52:38.348Z,18.08
2019-01-15T01:53:37.920Z,18.08
2019-01-15T01:54:37.916Z,18.11
2019-01-15T01:55:39.477Z,18.08
2019-01-15T01:56:38.429Z,18.08
2019-01-15T01:57:37.800Z,18.08
2019-01-15T01:58:37.980Z,18.09
2019-01-15T01:59:37.898Z,18.08
2019-01-15T02:00:37.929Z,18.07
2019-01-15T02:01:38.227Z,18.08
2019-01-15T02:02:37.505Z,18.04
2019-01-15T02:03:38.296Z,18.05
2019-01-15T02:04:37.674Z,18.05
2019-01-15T02:05:37.565Z,18.07
2019-01-15T02:06:37.920Z,18.04
2019-01-15T02:07:37.646Z,18.04
2019-01-15T02:08:38.007Z,18.04
2019-01-15T02:09:38.055Z,18.04
2019-01-15T02:10:37.930Z,18.04
2019-01-15T02:11:37.657Z,18.04
2019-01-15T02:12:38.096Z,18.05
2019-01-15T02:13:37.660Z,18.01
2019-01-15T02:14:37.844Z,18.02
2019-01-15T02:15:38.133Z,18.01
2019-01-15T02:16:37.651Z,18.01
2019-01-15T02:17:37.992Z,18
2019-01-15T02:18:38.072Z,18.01
2019-01-15T02:19:37.538Z,18
2019-01-15T02:20:37.627Z,18
2019-01-15T02:21:37.804Z,18.01
2019-01-15T02:22:37.642Z,18
2019-01-15T02:23:37.722Z,17.98
2019-01-15T02:24:37.779Z,17.98
2019-01-15T02:25:37.933Z,17.97
2019-01-15T02:26:38.268Z,17.98
2019-01-15T02:27:37.545Z,17.98
2019-01-15T02:28:37.964Z,18
2019-01-15T02:29:37.773Z,17.98
2019-01-15T02:30:37.631Z,17.98
2019-01-15T02:31:37.934Z,17.98
2019-01-15T02:32:38.002Z,17.98
2019-01-15T02:33:37.693Z,17.98
2019-01-15T02:34:38.027Z,17.98
2019-01-15T02:35:37.787Z,17.97
2019-01-15T02:36:38.038Z,17.93
2019-01-15T02:37:38.454Z,17.95
2019-01-15T02:38:37.688Z,17.95
2019-01-15T02:39:37.810Z,17.93
2019-01-15T02:40:37.878Z,17.91
2019-01-15T02:41:37.794Z,17.94
2019-01-15T02:42:47.557Z,17.93
2019-01-15T02:43:37.684Z,17.93
2019-01-15T02:44:37.697Z,17.94
2019-01-15T02:45:37.920Z,17.93
2019-01-15T02:46:37.710Z,17.93
2019-01-15T02:47:37.790Z,17.94
2019-01-15T02:48:38.025Z,17.93
2019-01-15T02:49:37.656Z,17.93
2019-01-15T02:50:37.835Z,17.93
2019-01-15T02:51:37.800Z,17.89
2019-01-15T02:52:37.736Z,17.89
2019-01-15T02:53:37.886Z,17.93
2019-01-15T02:54:37.845Z,17.88
2019-01-15T02:55:37.736Z,17.88
2019-01-15T02:56:37.773Z,17.89
2019-01-15T02:57:38.182Z,17.88
2019-01-15T02:58:38.539Z,17.87
2019-01-15T02:59:37.572Z,17.87
2019-01-15T03:00:37.988Z,17.87
2019-01-15T03:01:38.705Z,17.89
2019-01-15T03:02:37.608Z,17.87
2019-01-15T03:03:37.674Z,17.87
2019-01-15T03:04:37.820Z,17.89
2019-01-15T03:05:37.811Z,17.88
2019-01-15T03:06:37.689Z,17.85
2019-01-15T03:07:37.822Z,17.85
2019-01-15T03:08:38.442Z,17.88
2019-01-15T03:09:37.881Z,17.84
2019-01-15T03:10:37.467Z,17.87
2019-01-15T03:11:38.127Z,17.84
2019-01-15T03:12:38.158Z,17.84
2019-01-15T03:13:37.442Z,17.87
2019-01-15T03:14:37.847Z,17.87
2019-01-15T03:15:37.690Z,17.82
2019-01-15T03:16:37.897Z,17.82
2019-01-15T03:17:37.668Z,17.82
2019-01-15T03:18:37.668Z,17.84
2019-01-15T03:19:37.947Z,17.82
2019-01-15T03:20:39.601Z,17.84
2019-01-15T03:21:38.004Z,17.84
2019-01-15T03:22:37.721Z,17.82
2019-01-15T03:23:37.740Z,17.81
2019-01-15T03:24:37.823Z,17.82
2019-01-15T03:25:37.671Z,17.81
2019-01-15T03:26:37.854Z,17.81
2019-01-15T03:27:37.799Z,17.8
2019-01-15T03:28:37.645Z,17.8
2019-01-15T03:29:37.934Z,17.77
2019-01-15T03:30:38.268Z,17.8
2019-01-15T03:31:38.157Z,17.78
2019-01-15T03:32:37.931Z,17.78
2019-01-15T03:33:38.132Z,17.8
2019-01-15T03:34:37.802Z,17.77
2019-01-15T03:35:37.656Z,17.78
2019-01-15T03:36:38.081Z,17.77
2019-01-15T03:37:39.082Z,17.78
2019-01-15T03:38:39.611Z,17.77
2019-01-15T03:39:37.918Z,17.77
2019-01-15T03:40:37.834Z,17.78
2019-01-15T03:41:37.791Z,17.78
2019-01-15T03:42:38.014Z,17.74
2019-01-15T03:43:38.316Z,17.77
2019-01-15T03:44:37.477Z,17.73
2019-01-15T03:45:37.978Z,17.77
2019-01-15T03:46:38.373Z,17.73
2019-01-15T03:47:37.895Z,17.76
2019-01-15T03:48:37.711Z,17.73
2019-01-15T03:49:37.929Z,17.76
2019-01-15T03:50:37.867Z,17.71
2019-01-15T03:51:37.999Z,17.74
2019-01-15T03:52:37.709Z,17.73
2019-01-15T03:53:37.797Z,17.74
2019-01-15T03:54:37.727Z,17.74
2019-01-15T03:55:38.648Z,17.76
2019-01-15T03:56:37.797Z,17.71
2019-01-15T03:57:37.638Z,17.73
2019-01-15T03:58:38.037Z,17.74
2019-01-15T03:59:37.759Z,17.73
2019-01-15T04:00:37.685Z,17.71
2019-01-15T04:01:37.837Z,17.7
2019-01-15T04:02:37.623Z,17.71
2019-01-15T04:03:37.745Z,17.71
2019-01-15T04:04:37.493Z,17.7
2019-01-15T04:05:37.785Z,17.7
2019-01-15T04:06:38.163Z,17.67
2019-01-15T04:07:37.496Z,17.7
2019-01-15T04:08:37.887Z,17.7
2019-01-15T04:09:37.709Z,17.68
2019-01-15T04:10:37.514Z,17.68
2019-01-15T04:11:38.040Z,17.68
2019-01-15T04:12:38.039Z,17.67
2019-01-15T04:13:37.467Z,17.68
2019-01-15T04:14:37.908Z,17.68
2019-01-15T04:15:37.870Z,17.67
2019-01-15T04:16:37.708Z,17.67
2019-01-15T04:17:37.719Z,17.66
2019-01-15T04:18:37.598Z,17.66
2019-01-15T04:19:37.735Z,17.67
2019-01-15T04:20:37.938Z,17.67
2019-01-15T04:21:37.733Z,17.66
2019-01-15T04:22:37.716Z,17.66
2019-01-15T04:23:37.791Z,17.67
2019-01-15T04:24:37.464Z,17.66
2019-01-15T04:25:37.756Z,17.64
2019-01-15T04:26:37.919Z,17.66
2019-01-15T04:27:37.909Z,17.64
2019-01-15T04:28:38.499Z,17.64
2019-01-15T04:29:37.986Z,17.64
2019-01-15T04:30:37.922Z,17.64
2019-01-15T04:31:38.055Z,17.66
2019-01-15T04:32:37.775Z,17.61
2019-01-15T04:33:37.813Z,17.63
2019-01-15T04:34:37.988Z,17.64
2019-01-15T04:35:37.747Z,17.64
2019-01-15T04:36:37.713Z,17.63
2019-01-15T04:37:38.425Z,17.61
2019-01-15T04:38:37.675Z,17.63
2019-01-15T04:39:37.965Z,17.61
2019-01-15T04:40:37.717Z,17.63
2019-01-15T04:41:37.913Z,17.63
2019-01-15T04:42:37.671Z,17.63
2019-01-15T04:43:38.163Z,17.64
2019-01-15T04:44:37.565Z,17.63
2019-01-15T04:45:37.597Z,17.64
2019-01-15T04:46:37.544Z,17.64
2019-01-15T04:47:37.744Z,17.66
2019-01-15T04:48:37.617Z,17.67
2019-01-15T04:49:37.466Z,17.64
2019-01-15T04:50:37.875Z,17.67
2019-01-15T04:51:37.728Z,17.68
2019-01-15T04:52:38.063Z,17.7
2019-01-15T04:53:37.710Z,17.71
2019-01-15T04:54:37.795Z,17.68
2019-01-15T04:55:37.475Z,17.73
2019-01-15T04:56:37.873Z,17.73
2019-01-15T04:57:37.638Z,17.76
2019-01-15T04:58:37.478Z,17.77
2019-01-15T04:59:37.810Z,17.81
2019-01-15T05:00:37.756Z,17.81
2019-01-15T05:01:37.691Z,17.84
2019-01-15T05:02:38.058Z,17.87
2019-01-15T05:03:37.801Z,17.87
2019-01-15T05:04:37.974Z,17.89
2019-01-15T05:05:37.864Z,17.91
2019-01-15T05:06:37.535Z,17.98
2019-01-15T05:07:37.782Z,17.94
2019-01-15T05:08:38.178Z,17.97
2019-01-15T05:09:37.747Z,17.98
2019-01-15T05:10:37.975Z,17.98
2019-01-15T05:11:37.718Z,18.01
2019-01-15T05:12:37.524Z,18.02
2019-01-15T05:13:37.590Z,18.05
2019-01-15T05:14:37.733Z,18.04
2019-01-15T05:15:37.547Z,18.05
2019-01-15T05:16:37.873Z,18.08
2019-01-15T05:17:38.977Z,18.08
2019-01-15T05:18:37.681Z,18.12
2019-01-15T05:19:37.798Z,18.12
2019-01-15T05:20:37.805Z,18.12
2019-01-15T05:21:38.568Z,18.12
2019-01-15T05:22:37.797Z,18.18
2019-01-15T05:23:37.900Z,18.19
2019-01-15T05:24:37.930Z,18.22
2019-01-15T05:25:37.938Z,18.23
2019-01-15T05:26:38.045Z,18.25
2019-01-15T05:27:37.857Z,18.25
2019-01-15T05:28:37.731Z,18.26
2019-01-15T05:29:37.456Z,18.3
2019-01-15T05:30:37.855Z,18.32
2019-01-15T05:31:38.168Z,18.32
2019-01-15T05:32:37.713Z,18.32
2019-01-15T05:33:37.900Z,18.35
2019-01-15T05:34:37.975Z,18.35
2019-01-15T05:35:38.528Z,18.4
2019-01-15T05:36:38.051Z,18.39
2019-01-15T05:37:37.719Z,18.4
2019-01-15T05:38:38.072Z,18.43
2019-01-15T05:39:37.858Z,18.41
2019-01-15T05:40:38.100Z,18.43
2019-01-15T05:41:37.588Z,18.44
2019-01-15T05:42:38.595Z,18.44
2019-01-15T05:43:37.431Z,18.49
2019-01-15T05:44:37.927Z,18.5
2019-01-15T05:45:37.893Z,18.51
2019-01-15T05:46:37.758Z,18.5
2019-01-15T05:47:37.632Z,18.53
2019-01-15T05:48:37.718Z,18.56
2019-01-15T05:49:37.954Z,18.56
2019-01-15T05:50:37.843Z,18.56
2019-01-15T05:51:37.846Z,18.57
2019-01-15T05:52:37.785Z,18.58
2019-01-15T05:53:37.640Z,18.6
2019-01-15T05:54:37.704Z,18.62
2019-01-15T05:55:37.526Z,18.63
2019-01-15T05:56:37.887Z,18.64
2019-01-15T05:57:37.853Z,18.67
2019-01-15T05:58:38.022Z,18.68
2019-01-15T05:59:37.797Z,18.68
2019-01-15T06:00:37.500Z,18.71
2019-01-15T06:01:37.807Z,18.7
2019-01-15T06:02:37.712Z,18.74
2019-01-15T06:03:37.420Z,18.73
2019-01-15T06:04:37.724Z,18.75
2019-01-15T06:05:38.042Z,18.75
2019-01-15T06:06:37.799Z,18.77
2019-01-15T06:07:37.921Z,18.77
2019-01-15T06:08:37.991Z,18.78
2019-01-15T06:09:37.868Z,18.8
2019-01-15T06:10:37.810Z,18.81
2019-01-15T06:11:37.706Z,18.81
2019-01-15T06:12:37.931Z,18.85
2019-01-15T06:13:43.166Z,18.85
2019-01-15T06:14:37.631Z,18.84
2019-01-15T06:15:37.433Z,18.85
2019-01-15T06:16:37.965Z,18.85
2019-01-15T06:17:37.873Z,18.91
2019-01-15T06:18:39.456Z,18.9
2019-01-15T06:19:39.589Z,18.91
2019-01-15T06:20:37.743Z,18.9
2019-01-15T06:21:37.672Z,18.91
2019-01-15T06:22:37.458Z,18.92
2019-01-15T06:23:37.888Z,18.91
2019-01-15T06:24:37.712Z,18.94
2019-01-15T06:25:38.046Z,18.94
2019-01-15T06:26:37.687Z,18.95
2019-01-15T06:27:39.497Z,18.95
2019-01-15T06:28:39.299Z,18.97
2019-01-15T06:29:37.563Z,18.98
2019-01-15T06:30:37.674Z,18.92
2019-01-15T06:31:37.890Z,18.8
2019-01-15T06:32:37.771Z,18.66
2019-01-15T06:33:38.677Z,18.51
2019-01-15T06:34:38.951Z,18.36
2019-01-15T06:35:39.505Z,18.26
2019-01-15T06:36:39.133Z,18.13
2019-01-15T06:37:37.820Z,18.05
2019-01-15T06:38:37.828Z,18.04
2019-01-15T06:39:37.985Z,18.04
2019-01-15T06:40:37.523Z,18.09
2019-01-15T06:41:38.090Z,18.16
2019-01-15T06:42:37.965Z,18.22
2019-01-15T06:43:37.750Z,18.23
2019-01-15T06:44:37.813Z,18.28
2019-01-15T06:45:38.398Z,18.33
2019-01-15T06:46:38.088Z,18.35
2019-01-15T06:47:37.525Z,18.39
2019-01-15T06:48:38.054Z,18.37
2019-01-15T06:49:37.507Z,18.39
2019-01-15T06:50:37.571Z,18.43
2019-01-15T06:51:37.711Z,18.46
2019-01-15T06:52:37.692Z,18.47
2019-01-15T06:53:37.918Z,18.51
2019-01-15T06:54:37.651Z,18.51
2019-01-15T06:55:37.363Z,18.54
2019-01-15T06:56:37.690Z,18.56
2019-01-15T06:57:37.996Z,18.58
2019-01-15T06:58:37.837Z,18.57
2019-01-15T06:59:37.533Z,18.57
2019-01-15T07:00:38.591Z,18.6
2019-01-15T07:01:37.800Z,18.63
2019-01-15T07:02:38.028Z,18.62
2019-01-15T07:03:38.353Z,18.63
2019-01-15T07:04:44.411Z,18.63
2019-01-15T07:05:37.609Z,18.64
2019-01-15T07:06:37.436Z,18.68
2019-01-15T07:07:37.959Z,18.67
2019-01-15T07:08:37.688Z,18.68
2019-01-15T07:09:37.757Z,18.67
2019-01-15T07:10:38.572Z,18.67
2019-01-15T07:11:37.898Z,18.67
2019-01-15T07:12:39.384Z,18.68
2019-01-15T07:13:37.726Z,18.68
2019-01-15T07:14:37.639Z,18.71
2019-01-15T07:15:37.771Z,18.7
2019-01-15T07:16:37.898Z,18.73
2019-01-15T07:17:37.771Z,18.7
2019-01-15T07:18:37.817Z,18.68
2019-01-15T07:19:37.831Z,18.7
2019-01-15T07:20:38.244Z,18.7
2019-01-15T07:21:37.739Z,18.7
2019-01-15T07:22:37.598Z,18.71
2019-01-15T07:23:37.767Z,18.71
2019-01-15T07:24:38.128Z,18.71
2019-01-15T07:25:37.628Z,18.73
2019-01-15T07:26:37.714Z,18.7
2019-01-15T07:27:37.832Z,18.71
2019-01-15T07:28:37.954Z,18.7
2019-01-15T07:29:37.871Z,18.7
2019-01-15T07:30:37.689Z,18.73
2019-01-15T07:31:37.520Z,18.7
2019-01-15T07:32:37.475Z,18.7
2019-01-15T07:33:37.425Z,18.71
2019-01-15T07:34:37.817Z,18.7
2019-01-15T07:35:37.460Z,18.7
2019-01-15T07:36:37.532Z,18.71
2019-01-15T07:37:37.812Z,18.71
2019-01-15T07:38:37.461Z,18.67
2019-01-15T07:39:37.751Z,18.71
2019-01-15T07:40:37.706Z,18.7
2019-01-15T07:41:37.782Z,18.7
2019-01-15T07:42:37.552Z,18.71
2019-01-15T07:43:37.701Z,18.71
2019-01-15T07:44:37.752Z,18.71
2019-01-15T07:45:38.010Z,18.73
2019-01-15T07:46:37.355Z,18.68
2019-01-15T07:47:37.802Z,18.7
2019-01-15T07:48:37.838Z,18.71
2019-01-15T07:49:37.482Z,18.7
2019-01-15T07:50:37.925Z,18.7
2019-01-15T07:51:38.750Z,18.71
2019-01-15T07:52:37.676Z,18.7
2019-01-15T07:53:37.800Z,18.73
2019-01-15T07:54:37.628Z,18.7
2019-01-15T07:55:38.014Z,18.71
2019-01-15T07:56:37.966Z,18.71
2019-01-15T07:57:37.833Z,18.73
2019-01-15T07:58:37.623Z,18.74
2019-01-15T07:59:37.635Z,18.71
2019-01-15T08:00:37.818Z,18.73
2019-01-15T08:01:37.554Z,18.74
2019-01-15T08:02:37.800Z,18.7
2019-01-15T08:03:37.513Z,18.73
2019-01-15T08:04:37.898Z,18.73
2019-01-15T08:05:37.765Z,18.73
2019-01-15T08:06:37.833Z,18.73
2019-01-15T08:07:37.520Z,18.73
2019-01-15T08:08:37.643Z,18.71
2019-01-15T08:09:37.513Z,18.71
2019-01-15T08:10:37.882Z,18.73
2019-01-15T08:11:37.898Z,18.73
2019-01-15T08:12:37.917Z,18.75
2019-01-15T08:13:37.499Z,18.74
2019-01-15T08:14:37.637Z,18.73
2019-01-15T08:15:37.710Z,18.73
2019-01-15T08:16:37.837Z,18.73
2019-01-15T08:17:37.773Z,18.74
2019-01-15T08:18:37.731Z,18.74
2019-01-15T08:19:37.599Z,18.74
2019-01-15T08:20:37.452Z,18.75
2019-01-15T08:21:37.737Z,18.75
2019-01-15T08:22:37.990Z,18.75
2019-01-15T08:23:37.821Z,18.75
2019-01-15T08:24:37.849Z,18.75
2019-01-15T08:25:37.750Z,18.77
2019-01-15T08:26:37.482Z,18.75
2019-01-15T08:27:37.564Z,18.75
2019-01-15T08:28:37.959Z,18.75
2019-01-15T08:29:37.789Z,18.78
2019-01-15T08:30:37.511Z,18.78
2019-01-15T08:31:38.134Z,18.78
2019-01-15T08:32:37.536Z,18.77
2019-01-15T08:33:37.916Z,18.8
2019-01-15T08:34:37.849Z,18.8
2019-01-15T08:35:37.652Z,18.78
2019-01-15T08:36:37.674Z,18.8
2019-01-15T08:37:39.271Z,18.78
2019-01-15T08:38:37.914Z,18.78
2019-01-15T08:39:38.166Z,18.81
2019-01-15T08:40:37.374Z,18.78
2019-01-15T08:41:37.730Z,18.8
2019-01-15T08:42:37.532Z,18.8
2019-01-15T08:43:37.550Z,18.81
2019-01-15T08:44:37.488Z,18.8
2019-01-15T08:45:37.724Z,18.8
2019-01-15T08:46:37.722Z,18.81
2019-01-15T08:47:37.887Z,18.83
2019-01-15T08:48:37.833Z,18.84
2019-01-15T08:49:37.743Z,18.83
2019-01-15T08:50:37.934Z,18.84
2019-01-15T08:51:37.730Z,18.83
2019-01-15T08:52:39.331Z,18.83
2019-01-15T08:53:37.595Z,18.83
2019-01-15T08:54:37.935Z,18.83
2019-01-15T08:55:38.047Z,18.84
2019-01-15T08:56:37.601Z,18.84
2019-01-15T08:57:37.707Z,18.84
2019-01-15T08:58:39.364Z,18.84
2019-01-15T08:59:37.624Z,18.83
2019-01-15T09:00:38.556Z,18.84
2019-01-15T09:01:37.537Z,18.85
2019-01-15T09:02:37.623Z,18.84
2019-01-15T09:03:37.630Z,18.85
2019-01-15T09:04:38.569Z,18.85
2019-01-15T09:05:38.136Z,18.85
2019-01-15T09:06:37.784Z,18.87
2019-01-15T09:07:37.469Z,18.83
2019-01-15T09:08:37.775Z,18.85
2019-01-15T09:09:37.850Z,18.85
2019-01-15T09:10:37.778Z,18.85
2019-01-15T09:11:37.801Z,18.87
2019-01-15T09:12:37.676Z,18.87
2019-01-15T09:13:37.740Z,18.9
2019-01-15T09:14:37.742Z,18.88
2019-01-15T09:15:37.726Z,18.9
2019-01-15T09:16:37.833Z,18.9
2019-01-15T09:17:37.532Z,18.92
2019-01-15T09:18:38.163Z,18.95
2019-01-15T09:19:37.532Z,18.97
2019-01-15T09:20:37.691Z,18.98
2019-01-15T09:21:37.539Z,18.98
2019-01-15T09:22:37.446Z,19.01
2019-01-15T09:23:37.617Z,19.03
2019-01-15T09:24:37.964Z,19.03
2019-01-15T09:25:37.825Z,19.08
2019-01-15T09:26:38.017Z,19.09
2019-01-15T09:27:37.969Z,19.11
2019-01-15T09:28:37.440Z,19.12
2019-01-15T09:29:37.600Z,19.13
2019-01-15T09:30:37.638Z,19.15
2019-01-15T09:31:37.398Z,19.18
2019-01-15T09:32:38.042Z,19.18
2019-01-15T09:33:37.756Z,19.2
2019-01-15T09:34:37.566Z,19.19
2019-01-15T09:35:37.966Z,19.23
2019-01-15T09:36:38.114Z,19.23
2019-01-15T09:37:37.839Z,19.27
2019-01-15T09:38:38.243Z,19.27
2019-01-15T09:39:38.094Z,19.32
2019-01-15T09:40:38.453Z,19.3
2019-01-15T09:41:37.774Z,19.35
2019-01-15T09:42:37.872Z,19.33
2019-01-15T09:43:37.745Z,19.37
2019-01-15T09:44:37.973Z,19.39
2019-01-15T09:45:38.118Z,19.37
2019-01-15T09:46:37.741Z,19.39
2019-01-15T09:47:37.548Z,19.42
2019-01-15T09:48:37.735Z,19.42
2019-01-15T09:49:37.735Z,19.43
2019-01-15T09:50:37.727Z,19.43
2019-01-15T09:51:39.556Z,19.46
2019-01-15T09:52:37.306Z,19.5
2019-01-15T09:53:38.361Z,19.5
2019-01-15T09:54:37.613Z,19.54
2019-01-15T09:55:38.187Z,19.52
2019-01-15T09:56:37.771Z,19.5
2019-01-15T09:57:37.518Z,19.54
2019-01-15T09:58:37.545Z,19.57
2019-01-15T09:59:37.584Z,19.56
2019-01-15T10:00:37.338Z,19.58
2019-01-15T10:01:37.561Z,19.6
2019-01-15T10:02:38.611Z,19.61
2019-01-15T10:03:37.339Z,19.63
2019-01-15T10:04:37.878Z,19.64
2019-01-15T10:05:39.489Z,19.64
2019-01-15T10:06:38.082Z,19.64
2019-01-15T10:07:37.665Z,19.65
2019-01-15T10:08:39.340Z,19.65
2019-01-15T10:09:38.535Z,19.68
2019-01-15T10:10:37.612Z,19.68
2019-01-15T10:11:39.466Z,19.7
2019-01-15T10:12:37.574Z,19.7
2019-01-15T10:13:38.773Z,19.71
2019-01-15T10:14:41.928Z,19.71
2019-01-15T10:15:37.912Z,19.74
2019-01-15T10:16:37.493Z,19.73
2019-01-15T10:17:37.637Z,19.73
2019-01-15T10:18:37.853Z,19.77
2019-01-15T10:19:37.998Z,19.8
2019-01-15T10:20:37.357Z,19.77
2019-01-15T10:21:37.406Z,19.81
2019-01-15T10:22:37.879Z,19.81
2019-01-15T10:23:37.482Z,19.84
2019-01-15T10:24:37.515Z,19.82
2019-01-15T10:25:37.675Z,19.82
2019-01-15T10:26:37.597Z,19.86
2019-01-15T10:27:37.512Z,19.84
2019-01-15T10:28:37.825Z,19.84
2019-01-15T10:29:37.763Z,19.82
2019-01-15T10:30:37.744Z,19.85
2019-01-15T10:31:37.947Z,19.81
2019-01-15T10:32:37.777Z,19.8
2019-01-15T10:33:37.545Z,19.84
2019-01-15T10:34:37.933Z,19.81
2019-01-15T10:35:37.457Z,19.8
2019-01-15T10:36:37.515Z,19.78
2019-01-15T10:37:37.672Z,19.8
2019-01-15T10:38:38.573Z,19.8
2019-01-15T10:39:37.676Z,19.8
2019-01-15T10:40:37.807Z,19.77
2019-01-15T10:41:37.411Z,19.78
2019-01-15T10:42:37.746Z,19.77
2019-01-15T10:43:38.058Z,19.78
2019-01-15T10:44:37.893Z,19.77
2019-01-15T10:45:37.528Z,19.73
2019-01-15T10:46:37.744Z,19.74
2019-01-15T10:47:37.579Z,19.75
2019-01-15T10:48:37.586Z,19.77
2019-01-15T10:49:37.725Z,19.77
2019-01-15T10:50:37.423Z,19.74
2019-01-15T10:51:37.647Z,19.74
2019-01-15T10:52:37.779Z,19.77
2019-01-15T10:53:37.738Z,19.74
2019-01-15T10:54:37.855Z,19.74
2019-01-15T10:55:37.696Z,19.75
2019-01-15T10:56:37.477Z,19.74
2019-01-15T10:57:37.511Z,19.75
2019-01-15T10:58:37.884Z,19.75
2019-01-15T10:59:37.727Z,19.77
2019-01-15T11:00:37.484Z,19.8
2019-01-15T11:01:37.838Z,19.8
2019-01-15T11:02:38.276Z,19.84
2019-01-15T11:03:37.421Z,19.85
2019-01-15T11:04:37.764Z,19.86
2019-01-15T11:05:37.768Z,19.85
2019-01-15T11:06:37.506Z,19.86
2019-01-15T11:07:37.996Z,19.88
2019-01-15T11:08:37.696Z,19.91
2019-01-15T11:09:37.417Z,19.89
2019-01-15T11:10:37.395Z,19.91
2019-01-15T11:11:37.628Z,19.92
2019-01-15T11:12:37.695Z,19.93
2019-01-15T11:13:37.371Z,19.93
2019-01-15T11:14:37.461Z,19.91
2019-01-15T11:15:43.739Z,19.91
2019-01-15T11:16:37.882Z,19.91
2019-01-15T11:17:37.818Z,19.86
2019-01-15T11:18:37.306Z,19.88
2019-01-15T11:19:37.428Z,19.89
2019-01-15T11:20:37.418Z,19.88
2019-01-15T11:21:38.264Z,19.86
2019-01-15T11:22:37.764Z,19.89
2019-01-15T11:23:38.045Z,19.89
2019-01-15T11:24:38.742Z,19.86
2019-01-15T11:25:37.960Z,19.86
2019-01-15T11:26:37.681Z,19.85
2019-01-15T11:27:37.777Z,19.85
2019-01-15T11:28:39.143Z,19.88
2019-01-15T11:29:37.734Z,19.85
2019-01-15T11:30:38.104Z,19.85
2019-01-15T11:31:37.641Z,19.86
2019-01-15T11:32:38.940Z,19.85
2019-01-15T11:33:37.812Z,19.85
2019-01-15T11:34:37.765Z,19.86
2019-01-15T11:35:37.743Z,19.84
2019-01-15T11:36:38.305Z,19.85
2019-01-15T11:37:39.309Z,19.85
2019-01-15T11:38:37.924Z,19.85
2019-01-15T11:39:38.113Z,19.86
2019-01-15T11:40:37.543Z,19.85
2019-01-15T11:41:37.871Z,19.85
2019-01-15T11:42:37.533Z,19.85
2019-01-15T11:43:39.369Z,19.86
2019-01-15T11:44:37.475Z,19.88
2019-01-15T11:45:37.499Z,19.91
2019-01-15T11:46:38.089Z,19.91
2019-01-15T11:47:37.788Z,19.91
2019-01-15T11:48:37.551Z,19.93
2019-01-15T11:49:37.838Z,19.92
2019-01-15T11:50:37.452Z,19.93
2019-01-15T11:51:37.419Z,19.95
2019-01-15T11:52:37.469Z,19.95
2019-01-15T11:53:37.793Z,19.93
2019-01-15T11:54:38.010Z,19.96
2019-01-15T11:55:37.423Z,19.96
2019-01-15T11:56:38.248Z,19.98
2019-01-15T11:57:37.947Z,19.98
2019-01-15T11:58:37.543Z,19.98
2019-01-15T11:59:37.750Z,19.98
2019-01-15T12:00:37.787Z,19.98
2019-01-15T12:01:37.502Z,19.99
2019-01-15T12:02:37.881Z,19.98
2019-01-15T12:03:37.439Z,19.99
2019-01-15T12:04:37.508Z,20.01
2019-01-15T12:05:37.957Z,19.98
2019-01-15T12:06:37.294Z,19.98
2019-01-15T12:07:37.644Z,19.98
2019-01-15T12:08:37.633Z,19.99
2019-01-15T12:09:38.450Z,20.01
2019-01-15T12:10:37.432Z,20.01
2019-01-15T12:11:37.566Z,19.98
2019-01-15T12:12:37.422Z,19.99
2019-01-15T12:13:37.763Z,19.99
2019-01-15T12:14:37.272Z,19.99
2019-01-15T12:15:37.785Z,20.01
2019-01-15T12:16:37.724Z,19.99
2019-01-15T12:17:37.685Z,20.01
2019-01-15T12:18:37.379Z,19.98
2019-01-15T12:19:37.674Z,19.98
2019-01-15T12:20:39.631Z,19.98
2019-01-15T12:21:38.078Z,19.99
2019-01-15T12:22:37.779Z,19.99
2019-01-15T12:23:37.427Z,19.98
2019-01-15T12:24:37.837Z,19.96
2019-01-15T12:25:37.618Z,19.99
2019-01-15T12:26:37.585Z,19.99
2019-01-15T12:27:38.042Z,19.96
2019-01-15T12:28:38.062Z,19.99
2019-01-15T12:29:37.550Z,19.99
2019-01-15T12:30:37.563Z,19.98
2019-01-15T12:31:37.789Z,19.98
2019-01-15T12:32:37.549Z,19.98
2019-01-15T12:33:37.551Z,19.98
2019-01-15T12:34:37.492Z,19.99
2019-01-15T12:35:37.553Z,19.98
2019-01-15T12:36:37.766Z,19.96
2019-01-15T12:37:37.774Z,19.96
2019-01-15T12:38:37.913Z,19.99
2019-01-15T12:39:37.811Z,19.98
2019-01-15T12:40:37.336Z,19.98
2019-01-15T12:41:37.826Z,19.98
2019-01-15T12:42:37.368Z,19.99
2019-01-15T12:43:37.494Z,19.98
2019-01-15T12:44:37.424Z,19.98
2019-01-15T12:45:37.532Z,19.98
2019-01-15T12:46:37.778Z,20.01
2019-01-15T12:47:37.850Z,19.98
2019-01-15T12:48:37.912Z,19.98
2019-01-15T12:49:37.801Z,19.98
2019-01-15T12:50:39.239Z,19.96
2019-01-15T12:51:37.894Z,19.96
2019-01-15T12:52:37.699Z,19.98
2019-01-15T12:53:37.331Z,19.98
2019-01-15T12:54:37.891Z,19.98
2019-01-15T12:55:37.772Z,20.02